Página principal
METAR-TAF:

METAR-TAF

Aeroportos :

Aeroporto Internacional de Nadi

Nadi, Fiji

latitude: 17-45S, longitude: 177-27E, altura: 13 m

Observação actual do tempo

O boletim foi feito há 17 minutos, às 01:00 UTC
Vento 9 kt de oes-sudoeste
Temperatura 28°C
Humidade 70%
Pressão 1012 hPa
Visibilidade 10 km ou mais
Poucas nuvensa uma altura de 2800 ft

METAR: NFFN 160100Z 25009KT 9999 FEW028 28/22 Q1012 NOSIG

Hora: 13:17 (01:17 UTC)

Previsão

O boletim foi feito há 2 horas e 6 minutos, às 23:11 UTC
Previsão válida de 16 às 00 UTC a 16 às 24 UTC
Vento 10 kt de oeste
Visibilidade 10 km ou mais
Poucas nuvensa uma altura de 2800 ft
Tornando-se
de 16 às 04 UTC a 16 às 06 UTC
Vento 6 kt de este
Tornando-se
de 16 às 22 UTC a 16 às 24 UTC
Vento 10 kt de oeste

TAF: NFFN 152311Z 1600/1624 26010KT 9999 FEW028 BECMG 1604/1606 09006KT BECMG 1622/1624 28010KT

Observações e previsões do tempo de mais de 4000 aeroportos (mensagens METAR e TAF).

As estações disponíveis são os pontos amarelos e vermelhos sobre o mapa.

Mova o rato sobre o mapa para ver o nome da estação.

Depois clique no ponto para visualizar as observações e previsões meteorológicas.

Para alterar o mapa : clique nos botões verdes com uma cruz preta para aumentar o zoom; no botão verde com uma pitada de zoom; ou nas setas verdes para mapas adjacentes.


METAR-TAF: